Airfield :
LOGIN :

Register | Disclaimer

   EN    FR    IT 

 










Legend :    VFR   Marginal VFR   IFR   Intensive IFR   Very Intensive IFR
Visi :
Ceiling :
>= 8 km
>= 3000ft
5 to 8 km
1000 to 3000 ft
1500m to 5 km
500 to 1000 ft
800 to 1500m
200 to 500 ft
< 800m
< 200 ft
Symbols :   Thunderstorms  Fog  Heavy snow  Heavy precipitations  Wind > 20 kt
SIGMETs :     Misc.  Thunderstorms  Icing  Turbulence  Mountain Waves  Volcanic Ashes






- Airport Elevation : 459 ft
- IATA code : CER


LFRC - Cherbourg / Maupertus

CURRENT METAR :
  • 040000Z AUTO 25003KT CAVOK 10/10 Q1023

EXPIRED METARs :
  • 031530Z AUTO 30011KT 9999 FEW027 17/13 Q1022 NOSIG
  • 032330Z AUTO 25004KT 220V300 CAVOK 10/09 Q1023
  • 032300Z AUTO 28003KT 240V310 CAVOK 11/10 Q1023
  • 032230Z AUTO 26004KT CAVOK 10/09 Q1023
  • 032200Z AUTO 26004KT CAVOK 10/09 Q1023
  • 032130Z AUTO 24005KT CAVOK 11/10 Q1023

Expired Forecast.



MET'MAP, your aeronautical weather chart ! - Copyright ORBIFLY December 2007 - Disclaimer

ORBIFLY MET'MAP TEAM :

Programming & Development : Alexandra Zaïnal
Original concept : Baudouin d'Aumeries
Technical & hardware support : Manuel Goepfert
Assistance : Marc-Olivier Méhu




SOURCES & CREDITS :

   NOAA